createdAt,value
2018-12-16T00:00:53.910Z,25.67
2018-12-16T00:03:21.901Z,26.97
2018-12-16T00:05:49.833Z,25.53
2018-12-16T00:08:17.845Z,28.50
2018-12-16T00:10:45.911Z,25.90
2018-12-16T00:13:13.957Z,27.13
2018-12-16T00:15:42.103Z,27.40
2018-12-16T00:18:10.390Z,29.33
2018-12-16T00:20:38.362Z,24.33
2018-12-16T00:23:07.100Z,26.27
2018-12-16T00:25:35.194Z,26.60
2018-12-16T00:28:03.215Z,29.40
2018-12-16T00:30:31.183Z,26.43
2018-12-16T00:32:59.170Z,26.23
2018-12-16T00:35:27.137Z,28.47
2018-12-16T00:37:55.085Z,29.60
2018-12-16T00:40:23.045Z,25.37
2018-12-16T00:42:51.765Z,28.50
2018-12-16T00:45:19.795Z,26.17
2018-12-16T00:47:47.771Z,30.20
2018-12-16T00:50:15.802Z,29.00
2018-12-16T00:52:43.881Z,28.00
2018-12-16T00:55:11.886Z,30.80
2018-12-16T00:57:43.245Z,28.10
2018-12-16T01:00:12.557Z,25.60
2018-12-16T01:02:42.539Z,27.13
2018-12-16T01:05:10.889Z,26.93
2018-12-16T01:07:38.988Z,27.47
2018-12-16T01:10:08.450Z,28.77
2018-12-16T01:12:36.461Z,27.80
2018-12-16T01:15:04.898Z,27.80
2018-12-16T01:17:32.902Z,27.57
2018-12-16T01:20:01.724Z,28.50
2018-12-16T01:22:30.039Z,30.10
2018-12-16T01:24:58.070Z,26.80
2018-12-16T01:27:26.941Z,29.63
2018-12-16T01:29:54.985Z,29.53
2018-12-16T01:32:23.140Z,28.03
2018-12-16T01:34:51.110Z,28.67
2018-12-16T01:37:19.051Z,28.10
2018-12-16T01:39:47.599Z,29.97
2018-12-16T01:42:15.569Z,28.73
2018-12-16T01:44:43.528Z,31.27
2018-12-16T01:47:11.502Z,29.80
2018-12-16T01:49:39.479Z,31.27
2018-12-16T01:52:07.535Z,30.23
2018-12-16T01:54:35.504Z,31.00
2018-12-16T01:57:03.520Z,33.13
2018-12-16T01:59:31.500Z,32.47
2018-12-16T02:01:59.650Z,29.80
2018-12-16T02:04:28.450Z,32.00
2018-12-16T02:06:56.495Z,30.50
2018-12-16T02:09:24.509Z,32.10
2018-12-16T02:11:52.617Z,32.77
2018-12-16T02:14:20.544Z,32.17
2018-12-16T02:16:49.254Z,32.70
2018-12-16T02:19:17.224Z,34.90
2018-12-16T02:21:45.194Z,31.17
2018-12-16T02:24:13.186Z,33.13
2018-12-16T02:26:41.205Z,30.80
2018-12-16T02:29:09.206Z,32.30
2018-12-16T02:31:37.270Z,33.10
2018-12-16T02:34:05.645Z,31.80
2018-12-16T02:36:33.799Z,32.50
2018-12-16T02:39:01.818Z,32.87
2018-12-16T02:41:29.971Z,30.17
2018-12-16T02:43:57.972Z,31.27
2018-12-16T02:46:25.918Z,32.10
2018-12-16T02:48:54.033Z,31.13
2018-12-16T02:51:22.009Z,34.97
2018-12-16T02:53:50.009Z,31.83
2018-12-16T02:56:18.405Z,32.20
2018-12-16T02:58:46.473Z,32.30
2018-12-16T03:01:14.557Z,32.73
2018-12-16T03:03:42.514Z,31.27
2018-12-16T03:06:10.458Z,31.70
2018-12-16T03:08:38.474Z,29.87
2018-12-16T03:11:06.628Z,28.80
2018-12-16T03:13:34.720Z,31.17
2018-12-16T03:16:02.656Z,29.20
2018-12-16T03:18:30.713Z,28.40
2018-12-16T03:20:58.749Z,30.77
2018-12-16T03:23:26.885Z,27.60
2018-12-16T03:25:54.975Z,26.57
2018-12-16T03:28:22.899Z,27.13
2018-12-16T03:30:50.967Z,25.63
2018-12-16T03:33:19.026Z,25.07
2018-12-16T03:35:47.031Z,27.20
2018-12-16T03:38:15.059Z,26.47
2018-12-16T03:40:43.019Z,26.17
2018-12-16T03:43:10.998Z,25.50
2018-12-16T03:45:38.979Z,25.70
2018-12-16T03:48:06.967Z,26.97
2018-12-16T03:50:35.084Z,27.40
2018-12-16T03:53:03.080Z,27.40
2018-12-16T03:55:31.551Z,25.50
2018-12-16T03:57:59.598Z,26.20
2018-12-16T04:00:27.740Z,26.17
2018-12-16T04:02:55.756Z,25.60
2018-12-16T04:05:23.722Z,24.03
2018-12-16T04:07:51.707Z,28.07
2018-12-16T04:10:19.713Z,25.30
2018-12-16T04:12:47.686Z,24.97
2018-12-16T04:15:15.758Z,27.10
2018-12-16T04:17:43.767Z,24.90
2018-12-16T04:20:11.935Z,24.70
2018-12-16T04:22:40.641Z,25.57
2018-12-16T04:25:08.629Z,25.30
2018-12-16T04:27:36.591Z,27.53
2018-12-16T04:30:05.563Z,27.13
2018-12-16T04:32:33.510Z,27.70
2018-12-16T04:35:01.554Z,25.53
2018-12-16T04:37:29.594Z,26.70
2018-12-16T04:39:57.600Z,25.33
2018-12-16T04:42:25.746Z,29.10
2018-12-16T04:44:53.777Z,25.10
2018-12-16T04:47:21.766Z,25.60
2018-12-16T04:49:49.835Z,29.30
2018-12-16T04:52:17.912Z,28.93
2018-12-16T04:54:45.878Z,28.70
2018-12-16T04:57:14.058Z,25.97
2018-12-16T04:59:42.010Z,26.77
2018-12-16T05:02:09.953Z,27.67
2018-12-16T05:04:38.123Z,28.60
2018-12-16T05:07:06.067Z,27.60
2018-12-16T05:09:34.170Z,28.57
2018-12-16T05:12:02.161Z,28.77
2018-12-16T05:14:30.137Z,27.67
2018-12-16T05:16:58.091Z,29.23
2018-12-16T05:19:26.518Z,27.90
2018-12-16T05:21:54.490Z,29.90
2018-12-16T05:24:23.010Z,27.77
2018-12-16T05:26:50.962Z,30.50
2018-12-16T05:29:18.910Z,29.97
2018-12-16T05:31:46.985Z,27.53
2018-12-16T05:34:14.985Z,28.87
2018-12-16T05:36:42.939Z,29.67
2018-12-16T05:39:11.833Z,28.20
2018-12-16T05:41:39.817Z,26.60
2018-12-16T05:44:07.791Z,27.73
2018-12-16T05:46:35.753Z,27.00
2018-12-16T05:49:03.726Z,28.03
2018-12-16T05:51:31.699Z,26.70
2018-12-16T05:53:59.687Z,26.53
2018-12-16T05:56:27.621Z,26.30
2018-12-16T05:58:55.587Z,28.70
2018-12-16T06:01:23.623Z,26.97
2018-12-16T06:03:51.626Z,27.97
2018-12-16T06:06:19.590Z,26.73
2018-12-16T06:08:47.638Z,24.50
2018-12-16T06:11:15.667Z,26.60
2018-12-16T06:13:43.705Z,25.90
2018-12-16T06:16:11.698Z,26.97
2018-12-16T06:18:39.694Z,25.67
2018-12-16T06:21:07.688Z,27.53
2018-12-16T06:23:35.727Z,26.10
2018-12-16T06:26:03.758Z,25.83
2018-12-16T06:28:31.709Z,24.37
2018-12-16T06:30:59.699Z,25.67
2018-12-16T06:33:27.679Z,25.07
2018-12-16T06:35:55.642Z,25.70
2018-12-16T06:38:23.629Z,24.53
2018-12-16T06:40:51.612Z,24.23
2018-12-16T06:43:19.677Z,26.80
2018-12-16T06:45:47.735Z,26.87
2018-12-16T06:48:15.686Z,25.57
2018-12-16T06:50:43.795Z,26.20
2018-12-16T06:53:11.819Z,25.23
2018-12-16T06:55:43.237Z,24.20
2018-12-16T06:58:09.899Z,25.90
2018-12-16T07:00:37.854Z,25.40
2018-12-16T07:03:05.857Z,25.03
2018-12-16T07:05:33.890Z,24.60
2018-12-16T07:08:01.926Z,25.10
2018-12-16T07:10:29.880Z,24.53
2018-12-16T07:12:57.916Z,23.90
2018-12-16T07:15:25.894Z,25.43
2018-12-16T07:17:53.924Z,25.33
2018-12-16T07:20:21.971Z,28.07
2018-12-16T07:22:50.054Z,24.50
2018-12-16T07:25:18.037Z,24.53
2018-12-16T07:27:46.200Z,24.50
2018-12-16T07:30:14.997Z,24.87
2018-12-16T07:32:42.978Z,25.23
2018-12-16T07:35:10.922Z,23.27
2018-12-16T07:37:38.905Z,24.40
2018-12-16T07:40:06.977Z,25.60
2018-12-16T07:42:35.007Z,24.53
2018-12-16T07:45:03.381Z,24.67
2018-12-16T07:47:31.358Z,26.27
2018-12-16T07:49:59.367Z,25.90
2018-12-16T07:52:27.374Z,25.93
2018-12-16T07:54:55.339Z,25.20
2018-12-16T07:57:23.365Z,27.10
2018-12-16T07:59:51.323Z,24.77
2018-12-16T08:02:19.443Z,25.80
2018-12-16T08:04:48.143Z,25.00
2018-12-16T08:07:16.079Z,25.80
2018-12-16T08:09:44.159Z,24.67
2018-12-16T08:12:12.207Z,26.10
2018-12-16T08:14:41.098Z,23.43
2018-12-16T08:17:09.965Z,24.07
2018-12-16T08:19:37.934Z,26.23
2018-12-16T08:22:05.966Z,25.97
2018-12-16T08:24:33.974Z,25.20
2018-12-16T08:27:02.800Z,25.77
2018-12-16T08:29:30.883Z,23.70
2018-12-16T08:31:59.018Z,25.80
2018-12-16T08:34:26.972Z,24.37
2018-12-16T08:36:54.967Z,23.50
2018-12-16T08:39:22.957Z,22.83
2018-12-16T08:41:50.914Z,22.13
2018-12-16T08:44:18.907Z,23.93
2018-12-16T08:46:47.274Z,25.30
2018-12-16T08:49:15.234Z,25.60
2018-12-16T08:51:43.299Z,24.20
2018-12-16T08:54:11.257Z,24.03
2018-12-16T08:56:39.254Z,23.73
2018-12-16T08:59:07.232Z,24.97
2018-12-16T09:01:35.201Z,24.33
2018-12-16T09:04:03.164Z,24.40
2018-12-16T09:06:31.156Z,23.73
2018-12-16T09:08:59.440Z,27.07
2018-12-16T09:11:27.657Z,23.33
2018-12-16T09:13:55.621Z,24.30
2018-12-16T09:16:23.910Z,23.23
2018-12-16T09:18:51.851Z,24.20
2018-12-16T09:21:19.838Z,25.50
2018-12-16T09:23:47.825Z,24.07
2018-12-16T09:26:15.826Z,24.93
2018-12-16T09:28:43.789Z,23.63
2018-12-16T09:31:11.840Z,23.30
2018-12-16T09:33:39.809Z,24.60
2018-12-16T09:36:07.810Z,21.60
2018-12-16T09:38:36.455Z,21.27
2018-12-16T09:41:04.609Z,23.90
2018-12-16T09:43:32.718Z,23.93
2018-12-16T09:46:00.787Z,24.50
2018-12-16T09:48:28.814Z,24.30
2018-12-16T09:50:57.284Z,23.87
2018-12-16T09:53:25.289Z,23.67
2018-12-16T09:55:53.254Z,23.90
2018-12-16T09:58:21.226Z,23.60
2018-12-16T10:00:49.335Z,22.73
2018-12-16T10:03:17.325Z,24.77
2018-12-16T10:05:45.320Z,24.10
2018-12-16T10:08:13.307Z,24.83
2018-12-16T10:10:41.263Z,22.03
2018-12-16T10:13:09.404Z,24.47
2018-12-16T10:15:37.362Z,24.50
2018-12-16T10:18:05.358Z,25.00
2018-12-16T10:20:33.305Z,23.90
2018-12-16T10:23:01.298Z,24.07
2018-12-16T10:25:29.241Z,25.57
2018-12-16T10:27:57.280Z,24.60
2018-12-16T10:30:25.282Z,25.17
2018-12-16T10:32:53.283Z,25.90
2018-12-16T10:35:21.441Z,25.87
2018-12-16T10:37:49.774Z,24.33
2018-12-16T10:40:17.701Z,24.53
2018-12-16T10:42:45.854Z,24.60
2018-12-16T10:45:14.511Z,23.93
2018-12-16T10:47:42.641Z,23.23
2018-12-16T10:50:10.700Z,24.20
2018-12-16T10:52:38.737Z,23.77
2018-12-16T10:55:06.881Z,25.20
2018-12-16T10:57:34.897Z,25.13
2018-12-16T11:00:16.746Z,24.57
2018-12-16T11:02:44.738Z,23.07
2018-12-16T11:05:12.765Z,26.57
2018-12-16T11:07:41.053Z,25.90
2018-12-16T11:10:09.306Z,27.50
2018-12-16T11:12:39.245Z,23.47
2018-12-16T11:15:08.174Z,23.80
2018-12-16T11:17:36.292Z,25.40
2018-12-16T11:20:04.898Z,25.27
2018-12-16T11:22:32.870Z,24.47
2018-12-16T11:25:05.626Z,24.80
2018-12-16T11:27:30.893Z,25.10
2018-12-16T11:29:58.923Z,22.63
2018-12-16T11:32:26.898Z,23.60
2018-12-16T11:34:55.028Z,21.87
2018-12-16T11:37:22.998Z,24.17
2018-12-16T11:39:50.963Z,22.00
2018-12-16T11:42:18.946Z,22.50
2018-12-16T11:44:46.976Z,25.10
2018-12-16T11:47:15.190Z,24.50
2018-12-16T11:49:44.421Z,23.77
2018-12-16T11:52:12.545Z,24.37
2018-12-16T11:54:41.006Z,26.80
2018-12-16T11:57:10.081Z,24.00
2018-12-16T11:59:38.066Z,23.67
2018-12-16T12:02:06.180Z,24.37
2018-12-16T12:04:34.110Z,22.57
2018-12-16T12:07:02.111Z,23.83
2018-12-16T12:09:30.122Z,25.00
2018-12-16T12:11:58.102Z,27.07
2018-12-16T12:14:26.062Z,23.10
2018-12-16T12:16:54.063Z,24.57
2018-12-16T12:19:22.576Z,22.50
2018-12-16T12:21:50.802Z,24.30
2018-12-16T12:24:18.770Z,23.77
2018-12-16T12:26:46.773Z,26.07
2018-12-16T12:29:14.754Z,24.53
2018-12-16T12:31:42.720Z,25.63
2018-12-16T12:34:10.681Z,26.03
2018-12-16T12:36:38.757Z,24.70
2018-12-16T12:39:06.756Z,23.90
2018-12-16T12:41:34.781Z,24.80
2018-12-16T12:44:02.814Z,25.40
2018-12-16T12:46:30.754Z,22.80
2018-12-16T12:48:58.720Z,26.87
2018-12-16T12:51:26.713Z,25.47
2018-12-16T12:53:54.695Z,25.40
2018-12-16T12:56:23.200Z,24.37
2018-12-16T12:58:51.155Z,27.23
2018-12-16T13:01:19.118Z,25.10
2018-12-16T13:03:47.087Z,26.40
2018-12-16T13:06:15.026Z,26.20
2018-12-16T13:08:42.984Z,25.53
2018-12-16T13:11:11.060Z,26.83
2018-12-16T13:13:39.097Z,25.70
2018-12-16T13:16:07.297Z,23.33
2018-12-16T13:18:35.786Z,25.90
2018-12-16T13:21:03.753Z,25.80
2018-12-16T13:23:31.703Z,25.40
2018-12-16T13:26:02.438Z,27.30
2018-12-16T13:28:30.554Z,26.20
2018-12-16T13:30:58.561Z,25.70
2018-12-16T13:33:26.587Z,25.50
2018-12-16T13:35:54.611Z,28.50
2018-12-16T13:38:22.639Z,26.40
2018-12-16T13:40:50.699Z,25.90
2018-12-16T13:43:18.662Z,26.30
2018-12-16T13:45:46.671Z,25.45
2018-12-16T13:48:14.650Z,25.00
2018-12-16T13:50:42.970Z,26.07
2018-12-16T13:53:10.910Z,25.83
2018-12-16T13:55:40.997Z,28.40
2018-12-16T13:58:08.899Z,31.60
2018-12-16T14:00:36.885Z,26.90
2018-12-16T14:03:04.892Z,28.10
2018-12-16T14:05:32.982Z,25.80
2018-12-16T14:08:00.932Z,25.63
2018-12-16T14:10:28.921Z,26.57
2018-12-16T14:12:56.912Z,25.67
2018-12-16T14:15:24.927Z,25.60
2018-12-16T14:17:52.914Z,26.70
2018-12-16T14:20:21.630Z,27.50
2018-12-16T14:22:49.627Z,32.10
2018-12-16T14:25:17.654Z,27.40
2018-12-16T14:27:45.650Z,25.87
2018-12-16T14:30:13.622Z,25.67
2018-12-16T14:32:41.747Z,25.40
2018-12-16T14:35:10.542Z,23.93
2018-12-16T14:37:38.592Z,26.63
2018-12-16T14:40:08.109Z,26.33
2018-12-16T14:42:36.477Z,24.47
2018-12-16T14:45:06.538Z,24.07
2018-12-16T14:47:34.498Z,23.83
2018-12-16T14:50:02.517Z,23.90
2018-12-16T14:52:30.565Z,22.30
2018-12-16T14:54:58.503Z,22.77
2018-12-16T14:57:26.541Z,24.47
2018-12-16T14:59:54.511Z,24.50
2018-12-16T15:02:22.447Z,23.40
2018-12-16T15:04:50.401Z,25.13
2018-12-16T15:07:18.373Z,25.33
2018-12-16T15:09:46.542Z,26.50
2018-12-16T15:12:14.560Z,26.57
2018-12-16T15:14:42.917Z,24.80
2018-12-16T15:17:10.990Z,23.10
2018-12-16T15:19:38.988Z,24.63
2018-12-16T15:22:06.962Z,25.67
2018-12-16T15:24:34.910Z,24.97
2018-12-16T15:27:02.923Z,25.70
2018-12-16T15:29:30.871Z,23.87
2018-12-16T15:31:59.395Z,25.43
2018-12-16T15:34:27.377Z,24.33
2018-12-16T15:36:55.959Z,24.63
2018-12-16T15:39:23.975Z,26.63
2018-12-16T15:41:52.002Z,26.10
2018-12-16T15:44:20.072Z,26.67
2018-12-16T15:46:48.041Z,24.40
2018-12-16T15:49:16.112Z,25.80
2018-12-16T15:51:44.170Z,25.20
2018-12-16T15:54:12.544Z,25.30
2018-12-16T15:56:40.595Z,25.00
2018-12-16T15:59:08.580Z,22.80
2018-12-16T16:01:37.508Z,25.37
2018-12-16T16:04:06.671Z,25.50
2018-12-16T16:06:34.636Z,24.90
2018-12-16T16:09:03.296Z,24.47
2018-12-16T16:11:32.278Z,26.57
2018-12-16T16:14:01.448Z,24.57
2018-12-16T16:16:29.379Z,24.57
2018-12-16T16:18:57.452Z,24.53
2018-12-16T16:21:25.455Z,23.93
2018-12-16T16:23:53.432Z,26.00
2018-12-16T16:26:21.398Z,25.00
2018-12-16T16:28:50.331Z,24.10
2018-12-16T16:31:18.469Z,24.10
2018-12-16T16:33:46.410Z,24.43
2018-12-16T16:36:14.406Z,25.40
2018-12-16T16:38:42.476Z,25.33
2018-12-16T16:41:10.531Z,25.50
2018-12-16T16:43:38.505Z,26.30
2018-12-16T16:46:06.573Z,25.47
2018-12-16T16:48:34.554Z,24.70
2018-12-16T16:51:02.722Z,26.00
2018-12-16T16:53:30.694Z,27.23
2018-12-16T16:56:01.463Z,26.00
2018-12-16T16:58:29.471Z,25.60
2018-12-16T17:00:57.466Z,25.97
2018-12-16T17:03:25.542Z,25.53
2018-12-16T17:05:53.622Z,24.47
2018-12-16T17:08:21.611Z,25.30
2018-12-16T17:10:49.657Z,26.70
2018-12-16T17:13:18.361Z,26.30
2018-12-16T17:15:46.373Z,24.30
2018-12-16T17:18:14.326Z,23.70
2018-12-16T17:20:42.475Z,25.77
2018-12-16T17:23:10.438Z,26.07
2018-12-16T17:25:38.567Z,22.90
2018-12-16T17:28:06.754Z,23.97
2018-12-16T17:30:34.794Z,26.00
2018-12-16T17:33:02.923Z,25.97
2018-12-16T17:35:30.894Z,26.80
2018-12-16T17:37:58.864Z,26.50
2018-12-16T17:40:26.831Z,25.23
2018-12-16T17:42:54.903Z,26.70
2018-12-16T17:45:22.981Z,26.37
2018-12-16T17:47:50.962Z,26.57
2018-12-16T17:50:18.946Z,24.27
2018-12-16T17:52:46.922Z,23.70
2018-12-16T17:55:14.925Z,26.87
2018-12-16T17:57:42.868Z,25.00
2018-12-16T18:00:11.488Z,23.97
2018-12-16T18:02:39.558Z,24.70
2018-12-16T18:05:07.558Z,25.03
2018-12-16T18:07:35.708Z,25.67
2018-12-16T18:10:04.574Z,25.13
2018-12-16T18:12:32.722Z,23.17
2018-12-16T18:15:00.929Z,25.10
2018-12-16T18:17:28.968Z,25.10
2018-12-16T18:19:57.021Z,23.87
2018-12-16T18:22:25.045Z,24.37
2018-12-16T18:24:57.133Z,26.40
2018-12-16T18:27:25.121Z,23.87
2018-12-16T18:29:53.089Z,23.47
2018-12-16T18:32:21.601Z,24.40
2018-12-16T18:34:49.946Z,24.03
2018-12-16T18:37:18.581Z,23.13
2018-12-16T18:39:46.558Z,23.63
2018-12-16T18:42:15.637Z,22.97
2018-12-16T18:44:43.603Z,22.63
2018-12-16T18:47:11.626Z,23.00
2018-12-16T18:49:39.697Z,25.53
2018-12-16T18:52:07.666Z,22.43
2018-12-16T18:54:35.844Z,22.47
2018-12-16T18:57:07.147Z,23.50
2018-12-16T18:59:33.850Z,23.33
2018-12-16T19:02:01.809Z,23.90
2018-12-16T19:04:29.786Z,23.70
2018-12-16T19:06:57.755Z,23.80
2018-12-16T19:09:25.737Z,23.83
2018-12-16T19:11:53.691Z,21.77
2018-12-16T19:14:21.853Z,21.63
2018-12-16T19:16:49.978Z,21.50
2018-12-16T19:19:18.010Z,23.03
2018-12-16T19:21:45.978Z,22.30
2018-12-16T19:24:13.997Z,22.70
2018-12-16T19:26:42.009Z,23.47
2018-12-16T19:29:10.100Z,24.13
2018-12-16T19:31:38.100Z,24.27
2018-12-16T19:34:06.103Z,23.53
2018-12-16T19:36:34.300Z,22.90
2018-12-16T19:39:05.071Z,22.60
2018-12-16T19:41:33.215Z,23.77
2018-12-16T19:44:01.230Z,23.20
2018-12-16T19:46:30.060Z,24.07
2018-12-16T19:48:58.045Z,24.20
2018-12-16T19:51:27.490Z,23.63
2018-12-16T19:53:55.514Z,23.73
2018-12-16T19:56:23.796Z,22.87
2018-12-16T19:58:52.398Z,23.27
2018-12-16T20:01:20.511Z,25.60
2018-12-16T20:03:54.276Z,23.40
2018-12-16T20:06:27.804Z,23.80
2018-12-16T20:08:55.803Z,23.70
2018-12-16T20:11:25.115Z,22.27
2018-12-16T20:13:53.134Z,23.60
2018-12-16T20:16:21.189Z,24.00
2018-12-16T20:18:49.433Z,23.10
2018-12-16T20:21:17.449Z,25.17
2018-12-16T20:23:45.504Z,25.07
2018-12-16T20:26:13.484Z,25.17
2018-12-16T20:28:41.512Z,24.40
2018-12-16T20:31:09.556Z,22.97
2018-12-16T20:33:37.775Z,22.27
2018-12-16T20:36:05.779Z,25.37
2018-12-16T20:38:33.734Z,24.40
2018-12-16T20:41:01.887Z,23.70
2018-12-16T20:43:29.883Z,24.20
2018-12-16T20:45:58.393Z,23.27
2018-12-16T20:48:26.326Z,22.17
2018-12-16T20:50:54.505Z,23.70
2018-12-16T20:53:22.486Z,23.43
2018-12-16T20:55:50.956Z,22.57
2018-12-16T20:58:19.088Z,22.80
2018-12-16T21:00:47.105Z,23.80
2018-12-16T21:03:15.114Z,22.67
2018-12-16T21:05:43.217Z,23.30
2018-12-16T21:08:11.353Z,23.13
2018-12-16T21:10:39.404Z,23.57
2018-12-16T21:13:13.216Z,24.80
2018-12-16T21:15:47.071Z,24.93
2018-12-16T21:18:22.382Z,22.63
2018-12-16T21:20:51.589Z,22.60
2018-12-16T21:23:19.809Z,23.40
2018-12-16T21:25:47.771Z,23.20
2018-12-16T21:28:16.307Z,22.53
2018-12-16T21:30:44.326Z,22.73
2018-12-16T21:33:12.716Z,22.30
2018-12-16T21:35:40.713Z,24.10
2018-12-16T21:38:08.733Z,26.70
2018-12-16T21:40:36.803Z,23.87
2018-12-16T21:43:05.402Z,23.50
2018-12-16T21:45:33.387Z,24.00
2018-12-16T21:48:01.350Z,23.10
2018-12-16T21:50:29.343Z,23.40
2018-12-16T21:52:58.342Z,36.20
2018-12-16T21:55:26.329Z,27.97
2018-12-16T21:57:54.372Z,25.50
2018-12-16T22:00:22.465Z,25.20
2018-12-16T22:02:50.424Z,24.93
2018-12-16T22:05:20.320Z,33.50
2018-12-16T22:07:48.503Z,25.60
2018-12-16T22:10:16.455Z,27.17
2018-12-16T22:12:44.523Z,23.30
2018-12-16T22:15:13.263Z,22.73
2018-12-16T22:17:41.471Z,24.70
2018-12-16T22:20:09.814Z,23.70
2018-12-16T22:22:37.741Z,22.83
2018-12-16T22:25:05.886Z,23.50
2018-12-16T22:27:40.036Z,22.63
2018-12-16T22:30:05.470Z,22.67
2018-12-16T22:32:33.459Z,23.00
2018-12-16T22:35:01.411Z,24.37
2018-12-16T22:37:29.535Z,24.10
2018-12-16T22:39:57.593Z,24.87
2018-12-16T22:42:25.687Z,23.23
2018-12-16T22:44:53.766Z,23.70
2018-12-16T22:47:21.750Z,23.33
2018-12-16T22:49:49.774Z,23.20
2018-12-16T22:52:18.283Z,24.43
2018-12-16T22:54:46.387Z,25.00
2018-12-16T22:57:14.426Z,21.13
2018-12-16T22:59:42.399Z,24.40
2018-12-16T23:02:10.397Z,23.77
2018-12-16T23:04:39.085Z,23.37
2018-12-16T23:07:07.208Z,23.80
2018-12-16T23:09:35.131Z,24.17
2018-12-16T23:12:03.278Z,23.90
2018-12-16T23:14:32.535Z,23.63
2018-12-16T23:17:01.375Z,24.30
2018-12-16T23:19:29.413Z,24.43
2018-12-16T23:21:57.697Z,22.77
2018-12-16T23:24:26.587Z,23.80
2018-12-16T23:26:54.557Z,24.97
2018-12-16T23:29:22.546Z,24.60
2018-12-16T23:31:50.614Z,24.90
2018-12-16T23:34:19.002Z,23.40
2018-12-16T23:36:46.973Z,23.23
2018-12-16T23:39:15.526Z,25.37
2018-12-16T23:41:43.552Z,25.63
2018-12-16T23:44:11.689Z,23.27
2018-12-16T23:46:39.643Z,24.60
2018-12-16T23:49:07.615Z,24.10
2018-12-16T23:51:37.210Z,22.30
2018-12-16T23:54:05.370Z,24.27
2018-12-16T23:56:33.673Z,25.73
2018-12-16T23:59:01.918Z,24.63
